Time;durP1;ratioP1;P1;durP2;ratioP2;P2;SDS_P1;SDS_P2;PMS_P1;PMS_P2;Temp;Humidity;BMP_temperature;BMP_pressure;BME280_temperature;BME280_humidity;BME280_pressure;Samples;Min_cycle;Max_cycle;Signal;HPM_P1;HPM_P2
2023/05/14 00:02:47;;;;;;;12.70;6.30;;;;;;;;;;6274209;22;20252;-91
2023/05/14 00:05:52;;;;;;;18.45;6.70;;;;;;;;;;6272747;22;20166;-90
2023/05/14 00:08:59;;;;;;;13.13;6.38;;;;;;;;;;6270930;22;20190;-90
2023/05/14 00:12:04;;;;;;;17.30;6.38;;;;;;;;;;6271057;22;20162;-90
2023/05/14 00:15:10;;;;;;;11.63;6.45;;;;;;;;;;6270667;22;20220;-91
2023/05/14 00:18:58;;;;;;;10.95;6.43;;;;;;;;;;6271553;22;20170;-87
2023/05/14 00:22:03;;;;;;;11.45;6.20;;;;;;;;;;6270944;22;20150;-91
2023/05/14 00:25:10;;;;;;;15.55;6.18;;;;;;;;;;6270756;22;20349;-90
2023/05/14 00:28:15;;;;;;;17.02;7.07;;;;;;;;;;6270890;22;20238;-90
2023/05/14 00:31:20;;;;;;;10.68;6.07;;;;;;;;;;6273279;22;20495;-91
2023/05/14 00:34:25;;;;;;;14.70;5.88;;;;;;;;;;6272092;22;20213;-91
2023/05/14 00:37:30;;;;;;;18.58;5.53;;;;;;;;;;6270655;22;20169;-91
2023/05/14 00:40:37;;;;;;;10.52;5.90;;;;;;;;;;6273177;22;20185;-91
2023/05/14 00:43:59;;;;;;;9.60;5.60;;;;;;;;;;6271845;22;20193;-89
2023/05/14 00:47:05;;;;;;;11.30;6.30;;;;;;;;;;6270805;22;20174;-90
2023/05/14 00:50:11;;;;;;;10.63;5.80;;;;;;;;;;6272024;22;20173;-91
2023/05/14 00:53:17;;;;;;;13.27;5.97;;;;;;;;;;6274265;22;20146;-92
2023/05/14 00:56:24;;;;;;;9.82;5.55;;;;;;;;;;6273940;22;20229;-91
2023/05/14 00:59:29;;;;;;;11.90;5.75;;;;;;;;;;6271569;22;20169;-93
2023/05/14 01:02:34;;;;;;;13.10;6.28;;;;;;;;;;6271525;22;20177;-92
2023/05/14 01:05:46;;;;;;;9.70;5.72;;;;;;;;;;6269965;22;20204;-92
2023/05/14 01:08:54;;;;;;;10.32;5.57;;;;;;;;;;6273058;22;20198;-91
2023/05/14 01:12:04;;;;;;;15.48;5.68;;;;;;;;;;6273613;22;20289;-91
2023/05/14 01:15:11;;;;;;;11.40;6.22;;;;;;;;;;6273587;22;20165;-92
2023/05/14 01:18:22;;;;;;;12.52;5.80;;;;;;;;;;6272459;22;20165;-88
2023/05/14 01:21:39;;;;;;;12.80;5.63;;;;;;;;;;6272804;22;20169;-89
2023/05/14 01:24:44;;;;;;;12.32;5.57;;;;;;;;;;6272768;22;20210;-90
2023/05/14 01:27:53;;;;;;;12.57;6.30;;;;;;;;;;6272460;22;20169;-89
2023/05/14 01:31:03;;;;;;;10.15;5.93;;;;;;;;;;6271111;22;20166;-90
2023/05/14 01:34:20;;;;;;;15.13;6.43;;;;;;;;;;6271759;22;20170;-88
2023/05/14 01:37:28;;;;;;;11.57;5.47;;;;;;;;;;6271091;22;20165;-90
2023/05/14 01:40:33;;;;;;;10.55;5.80;;;;;;;;;;6275649;22;20170;-91
2023/05/14 01:43:39;;;;;;;10.57;5.45;;;;;;;;;;6272794;22;20166;-90
2023/05/14 01:46:44;;;;;;;12.25;6.00;;;;;;;;;;6270331;22;20166;-91
2023/05/14 01:49:55;;;;;;;11.73;6.15;;;;;;;;;;6273862;22;20184;-90
2023/05/14 01:53:02;;;;;;;11.90;6.07;;;;;;;;;;6273375;22;20169;-91
2023/05/14 01:56:11;;;;;;;11.70;5.72;;;;;;;;;;6276274;22;20189;-92
2023/05/14 01:59:16;;;;;;;10.07;6.10;;;;;;;;;;6276092;22;20277;-91
2023/05/14 02:02:22;;;;;;;17.10;6.15;;;;;;;;;;6275727;22;20212;-91
2023/05/14 02:05:27;;;;;;;16.13;6.63;;;;;;;;;;6275645;22;20572;-90
2023/05/14 02:08:34;;;;;;;11.75;6.43;;;;;;;;;;6274206;22;20209;-90
2023/05/14 02:11:39;;;;;;;11.73;6.22;;;;;;;;;;6274891;22;20488;-90
2023/05/14 02:14:44;;;;;;;11.80;6.70;;;;;;;;;;6275301;22;20209;-87
2023/05/14 02:18:04;;;;;;;11.32;5.60;;;;;;;;;;6273925;22;20170;-89
2023/05/14 02:21:10;;;;;;;14.05;5.97;;;;;;;;;;6274692;22;20166;-90
2023/05/14 02:24:17;;;;;;;11.25;6.05;;;;;;;;;;6276034;22;20146;-91
2023/05/14 02:27:22;;;;;;;15.60;6.22;;;;;;;;;;6275249;22;20336;-90
2023/05/14 02:30:28;;;;;;;12.77;5.90;;;;;;;;;;6274532;22;20254;-90
2023/05/14 02:33:34;;;;;;;10.10;5.72;;;;;;;;;;6274257;22;20158;-91
2023/05/14 02:36:40;;;;;;;10.57;5.90;;;;;;;;;;6273843;22;20224;-91
2023/05/14 02:39:47;;;;;;;10.57;5.32;;;;;;;;;;6272397;22;20624;-90
2023/05/14 02:42:54;;;;;;;10.85;6.00;;;;;;;;;;6273711;22;20604;-89
2023/05/14 02:46:00;;;;;;;12.38;6.05;;;;;;;;;;6272518;22;20166;-90
2023/05/14 02:49:05;;;;;;;12.65;6.18;;;;;;;;;;6273315;22;20194;-91
2023/05/14 02:52:10;;;;;;;10.18;6.13;;;;;;;;;;6275144;22;20185;-90
2023/05/14 02:55:21;;;;;;;12.55;5.38;;;;;;;;;;6271162;22;20189;-91
2023/05/14 02:58:26;;;;;;;10.77;5.35;;;;;;;;;;6272409;22;20162;-90
2023/05/14 03:01:32;;;;;;;14.18;5.70;;;;;;;;;;6272403;22;20157;-90
2023/05/14 03:04:37;;;;;;;11.80;5.72;;;;;;;;;;6273011;22;20602;-90
2023/05/14 03:07:42;;;;;;;11.18;6.28;;;;;;;;;;6273966;22;20161;-89
2023/05/14 03:10:48;;;;;;;14.90;5.45;;;;;;;;;;6273861;22;20173;-91
2023/05/14 03:13:54;;;;;;;20.67;6.68;;;;;;;;;;6272442;22;20177;-90
2023/05/14 03:17:26;;;;;;;11.52;5.70;;;;;;;;;;6272495;22;20166;-90
2023/05/14 03:20:31;;;;;;;8.68;5.45;;;;;;;;;;6274275;22;20169;-91
2023/05/14 03:23:36;;;;;;;11.38;5.53;;;;;;;;;;6274212;22;20210;-90
2023/05/14 03:26:45;;;;;;;13.02;5.85;;;;;;;;;;6274113;22;20169;-89
2023/05/14 03:29:50;;;;;;;9.88;5.47;;;;;;;;;;6273859;22;20197;-89
2023/05/14 03:32:55;;;;;;;14.35;5.18;;;;;;;;;;6273846;22;20154;-90
2023/05/14 03:36:00;;;;;;;10.90;5.13;;;;;;;;;;6273561;22;20166;-90
2023/05/14 03:39:08;;;;;;;11.70;6.05;;;;;;;;;;6273192;22;20260;-90
2023/05/14 03:42:15;;;;;;;11.13;5.10;;;;;;;;;;6272563;22;20170;-90
2023/05/14 03:45:51;;;;;;;12.93;5.22;;;;;;;;;;6272348;22;20166;-89
2023/05/14 03:48:57;;;;;;;13.18;5.60;;;;;;;;;;6275810;22;20193;-92
2023/05/14 03:52:02;;;;;;;11.02;5.22;;;;;;;;;;6274893;22;20220;-92
2023/05/14 03:55:08;;;;;;;10.48;5.03;;;;;;;;;;6274858;22;20233;-91
2023/05/14 03:58:16;;;;;;;9.75;5.32;;;;;;;;;;6275073;22;20150;-90
2023/05/14 04:01:21;;;;;;;11.10;5.80;;;;;;;;;;6273565;22;20221;-91
2023/05/14 04:04:27;;;;;;;9.23;5.17;;;;;;;;;;6274722;22;20224;-89
2023/05/14 04:07:32;;;;;;;8.43;5.03;;;;;;;;;;6275882;22;20170;-91
2023/05/14 04:10:37;;;;;;;10.93;5.93;;;;;;;;;;6275762;22;20220;-91
2023/05/14 04:13:44;;;;;;;19.70;6.60;;;;;;;;;;6275148;22;20209;-91
2023/05/14 04:16:51;;;;;;;14.25;5.57;;;;;;;;;;6274949;22;20162;-92
2023/05/14 04:19:57;;;;;;;10.57;5.93;;;;;;;;;;6275324;22;20624;-90
2023/05/14 04:23:02;;;;;;;9.55;5.45;;;;;;;;;;6276979;22;20166;-92
2023/05/14 04:26:07;;;;;;;11.55;6.00;;;;;;;;;;6275344;22;20226;-90
2023/05/14 04:29:14;;;;;;;9.37;5.40;;;;;;;;;;6274960;22;20194;-91
2023/05/14 04:32:20;;;;;;;11.35;5.43;;;;;;;;;;6274387;22;20169;-91
2023/05/14 04:35:25;;;;;;;11.00;5.70;;;;;;;;;;6274265;22;20601;-90
2023/05/14 04:38:31;;;;;;;9.52;5.68;;;;;;;;;;6275619;22;20170;-89
2023/05/14 04:41:36;;;;;;;14.60;5.70;;;;;;;;;;6275309;22;20212;-86
2023/05/14 04:45:21;;;;;;;10.25;5.30;;;;;;;;;;6275899;22;20253;-91
2023/05/14 04:48:33;;;;;;;10.35;5.57;;;;;;;;;;6273345;22;20165;-90
2023/05/14 04:51:38;;;;;;;13.05;5.93;;;;;;;;;;6273946;22;20169;-90
2023/05/14 04:54:44;;;;;;;101.68;8.70;;;;;;;;;;6273692;22;20166;-89
2023/05/14 04:57:49;;;;;;;14.07;5.75;;;;;;;;;;6274252;22;20209;-92
2023/05/14 05:00:55;;;;;;;15.35;6.10;;;;;;;;;;6276447;22;20170;-90
